createdAt,value
2018-04-10T00:01:50.859Z,9.03
2018-04-10T00:04:19.155Z,9.00
2018-04-10T00:06:46.671Z,10.93
2018-04-10T00:09:15.707Z,8.07
2018-04-10T00:11:43.223Z,11.13
2018-04-10T00:14:10.764Z,9.13
2018-04-10T00:16:38.284Z,11.07
2018-04-10T00:19:05.816Z,7.47
2018-04-10T00:21:34.100Z,12.73
2018-04-10T00:24:02.390Z,8.20
2018-04-10T00:26:30.692Z,13.43
2018-04-10T00:28:58.251Z,13.13
2018-04-10T00:31:25.811Z,8.53
2018-04-10T00:33:53.319Z,9.20
2018-04-10T00:36:21.615Z,8.83
2018-04-10T00:38:49.887Z,10.37
2018-04-10T00:41:17.423Z,11.03
2018-04-10T00:43:45.043Z,12.00
2018-04-10T00:46:12.602Z,9.37
2018-04-10T00:48:40.171Z,6.93
2018-04-10T00:51:07.688Z,14.80
2018-04-10T00:53:37.449Z,8.10
2018-04-10T00:56:04.960Z,12.63
2018-04-10T00:58:33.255Z,9.33
2018-04-10T01:01:01.560Z,7.83
2018-04-10T01:03:29.119Z,10.40
2018-04-10T01:05:56.627Z,9.20
2018-04-10T01:08:24.156Z,8.73
2018-04-10T01:10:51.667Z,10.50
2018-04-10T01:13:19.968Z,10.13
2018-04-10T01:15:47.478Z,9.40
2018-04-10T01:18:15.020Z,12.80
2018-04-10T01:20:42.535Z,11.27
2018-04-10T01:23:10.063Z,7.83
2018-04-10T01:25:37.571Z,10.47
2018-04-10T01:28:05.126Z,9.03
2018-04-10T01:30:32.699Z,9.60
2018-04-10T01:33:00.258Z,8.40
2018-04-10T01:35:27.815Z,8.83
2018-04-10T01:37:55.378Z,11.37
2018-04-10T01:40:22.891Z,12.17
2018-04-10T01:42:50.423Z,13.60
2018-04-10T01:45:17.979Z,13.73
2018-04-10T01:47:45.508Z,13.40
2018-04-10T01:50:13.024Z,10.70
2018-04-10T01:52:40.556Z,13.50
2018-04-10T01:55:08.099Z,9.97
2018-04-10T01:57:35.637Z,11.30
2018-04-10T02:00:03.906Z,12.57
2018-04-10T02:02:32.321Z,9.23
2018-04-10T02:04:59.835Z,11.73
2018-04-10T02:07:28.131Z,11.03
2018-04-10T02:09:56.408Z,11.17
2018-04-10T02:12:23.944Z,11.27
2018-04-10T02:14:52.220Z,11.00
2018-04-10T02:17:19.751Z,8.90
2018-04-10T02:19:47.259Z,9.60
2018-04-10T02:22:15.548Z,6.30
2018-04-10T02:24:43.072Z,7.67
2018-04-10T02:27:10.604Z,8.57
2018-04-10T02:29:38.143Z,10.10
2018-04-10T02:32:05.682Z,12.93
2018-04-10T02:34:33.192Z,7.27
2018-04-10T02:37:00.727Z,6.60
2018-04-10T02:39:28.260Z,9.73
2018-04-10T02:41:55.771Z,8.93
2018-04-10T02:44:23.313Z,12.07
2018-04-10T02:46:50.831Z,11.40
2018-04-10T02:49:19.137Z,11.30
2018-04-10T02:51:46.651Z,11.03
2018-04-10T02:54:14.950Z,10.30
2018-04-10T02:56:42.536Z,9.13
2018-04-10T02:59:10.070Z,12.93
2018-04-10T03:01:38.377Z,12.67
2018-04-10T03:04:05.937Z,10.57
2018-04-10T03:06:33.446Z,11.40
2018-04-10T03:09:00.983Z,9.53
2018-04-10T03:11:28.503Z,10.57
2018-04-10T03:13:56.045Z,13.40
2018-04-10T03:16:23.636Z,12.07
2018-04-10T03:18:51.176Z,11.80
2018-04-10T03:21:18.696Z,12.70
2018-04-10T03:23:46.238Z,8.50
2018-04-10T03:26:13.747Z,9.70
2018-04-10T03:28:42.050Z,13.40
2018-04-10T03:31:09.613Z,10.90
2018-04-10T03:33:37.148Z,9.93
2018-04-10T03:36:04.668Z,11.37
2018-04-10T03:38:32.200Z,9.77
2018-04-10T03:40:59.750Z,10.43
2018-04-10T03:43:27.296Z,14.10
2018-04-10T03:45:54.880Z,9.87
2018-04-10T03:48:22.431Z,11.43
2018-04-10T03:50:50.079Z,9.30
2018-04-10T03:53:17.660Z,7.80
2018-04-10T03:55:45.235Z,7.77
2018-04-10T03:58:12.883Z,12.80
2018-04-10T04:00:40.404Z,11.07
2018-04-10T04:03:08.728Z,10.00
2018-04-10T04:05:36.287Z,13.40
2018-04-10T04:08:03.818Z,11.60
2018-04-10T04:10:31.338Z,10.57
2018-04-10T04:12:58.965Z,7.00
2018-04-10T04:15:26.478Z,7.87
2018-04-10T04:17:54.016Z,8.90
2018-04-10T04:20:33.524Z,9.63
2018-04-10T04:23:01.081Z,9.13
2018-04-10T04:25:28.592Z,8.47
2018-04-10T04:27:56.922Z,8.67
2018-04-10T04:30:24.480Z,8.37
2018-04-10T04:32:52.035Z,8.23
2018-04-10T04:35:19.545Z,11.27
2018-04-10T04:37:47.052Z,7.90
2018-04-10T04:40:14.591Z,10.63
2018-04-10T04:42:42.871Z,6.30
2018-04-10T04:45:11.175Z,10.20
2018-04-10T04:47:38.735Z,8.10
2018-04-10T04:50:06.295Z,9.27
2018-04-10T04:52:33.861Z,9.17
2018-04-10T04:55:01.425Z,9.23
2018-04-10T04:57:28.938Z,10.83
2018-04-10T04:59:57.252Z,13.07
2018-04-10T05:02:24.763Z,9.23
2018-04-10T05:04:52.302Z,10.53
2018-04-10T05:07:19.815Z,10.93
2018-04-10T05:09:48.110Z,12.10
2018-04-10T05:12:15.622Z,8.77
2018-04-10T05:14:43.159Z,8.83
2018-04-10T05:17:10.673Z,7.20
2018-04-10T05:19:38.261Z,9.10
2018-04-10T05:22:05.775Z,13.30
2018-04-10T05:24:33.314Z,8.60
2018-04-10T05:27:00.828Z,6.73
2018-04-10T05:29:28.358Z,5.90
2018-04-10T05:31:56.684Z,6.13
2018-04-10T05:34:24.217Z,5.97
2018-04-10T05:36:51.731Z,5.97
2018-04-10T05:39:19.355Z,6.40
2018-04-10T05:41:46.868Z,6.03
2018-04-10T05:44:14.475Z,6.50
2018-04-10T05:46:41.987Z,8.27
2018-04-10T05:49:09.516Z,6.77
2018-04-10T05:51:37.034Z,9.00
2018-04-10T05:54:05.340Z,8.17
2018-04-10T05:56:32.904Z,7.60
2018-04-10T05:59:00.435Z,6.77
2018-04-10T06:01:28.707Z,5.63
2018-04-10T06:03:57.011Z,9.10
2018-04-10T06:06:24.534Z,7.93
2018-04-10T06:08:52.851Z,5.77
2018-04-10T06:11:20.362Z,6.33
2018-04-10T06:13:47.899Z,8.20
2018-04-10T06:16:15.432Z,9.33
2018-04-10T06:18:42.972Z,8.70
2018-04-10T06:21:10.491Z,7.07
2018-04-10T06:23:38.031Z,9.73
2018-04-10T06:26:05.539Z,9.40
2018-04-10T06:28:33.847Z,8.30
2018-04-10T06:31:01.360Z,10.00
2018-04-10T06:33:28.967Z,9.23
2018-04-10T06:35:56.499Z,9.10
2018-04-10T06:38:24.811Z,11.70
2018-04-10T06:40:52.343Z,13.80
2018-04-10T06:43:20.625Z,11.80
2018-04-10T06:45:48.927Z,13.47
2018-04-10T06:48:16.445Z,13.37
2018-04-10T06:50:43.985Z,11.07
2018-04-10T06:53:11.505Z,12.97
2018-04-10T06:55:39.042Z,13.50
2018-04-10T06:58:07.327Z,8.73
2018-04-10T07:00:34.903Z,12.60
2018-04-10T07:03:02.410Z,8.80
2018-04-10T07:05:29.948Z,10.13
2018-04-10T07:07:57.536Z,11.13
2018-04-10T07:10:25.045Z,12.70
2018-04-10T07:12:52.555Z,9.40
2018-04-10T07:15:20.100Z,16.20
2018-04-10T07:17:47.634Z,10.97
2018-04-10T07:20:15.186Z,8.83
2018-04-10T07:22:42.748Z,13.33
2018-04-10T07:25:10.284Z,10.80
2018-04-10T07:27:38.559Z,12.23
2018-04-10T07:30:06.955Z,11.00
2018-04-10T07:32:34.475Z,20.43
2018-04-10T07:35:02.089Z,11.37
2018-04-10T07:37:29.627Z,12.73
2018-04-10T07:39:57.211Z,15.40
2018-04-10T07:42:24.737Z,12.07
2018-04-10T07:44:53.045Z,12.77
2018-04-10T07:47:20.609Z,11.27
2018-04-10T07:49:48.151Z,10.03
2018-04-10T07:52:15.668Z,12.37
2018-04-10T07:54:43.210Z,11.63
2018-04-10T07:57:10.744Z,11.10
2018-04-10T07:59:38.264Z,10.00
2018-04-10T08:02:06.574Z,11.77
2018-04-10T08:04:34.089Z,11.00
2018-04-10T08:07:01.623Z,8.50
2018-04-10T08:09:29.145Z,9.40
2018-04-10T08:11:56.675Z,8.20
2018-04-10T08:14:24.287Z,11.70
2018-04-10T08:16:51.818Z,10.10
2018-04-10T08:19:20.092Z,8.53
2018-04-10T08:21:48.392Z,7.30
2018-04-10T08:24:15.959Z,9.33
2018-04-10T08:26:43.491Z,7.73
2018-04-10T08:29:11.770Z,7.23
2018-04-10T08:31:40.074Z,5.57
2018-04-10T08:34:07.588Z,6.30
2018-04-10T08:36:35.120Z,6.93
2018-04-10T08:39:02.637Z,5.00
2018-04-10T08:41:30.164Z,6.70
2018-04-10T08:43:57.686Z,6.50
2018-04-10T08:46:25.198Z,4.90
2018-04-10T08:48:53.512Z,4.83
2018-04-10T08:51:21.032Z,4.80
2018-04-10T08:53:49.335Z,5.77
2018-04-10T08:56:16.853Z,6.63
2018-04-10T08:58:44.384Z,4.53
2018-04-10T09:01:11.895Z,4.30
2018-04-10T09:03:40.307Z,3.80
2018-04-10T09:06:07.867Z,4.07
2018-04-10T09:08:35.411Z,4.27
2018-04-10T09:11:02.933Z,7.90
2018-04-10T09:13:30.459Z,5.33
2018-04-10T09:15:57.972Z,5.80
2018-04-10T09:18:26.269Z,5.10
2018-04-10T09:20:53.783Z,5.40
2018-04-10T09:23:22.093Z,8.47
2018-04-10T09:25:50.399Z,7.53
2018-04-10T09:28:17.936Z,7.20
2018-04-10T09:30:46.215Z,10.70
2018-04-10T09:33:14.520Z,7.47
2018-04-10T09:35:42.029Z,7.40
2018-04-10T09:38:09.574Z,6.70
2018-04-10T09:40:37.095Z,8.30
2018-04-10T09:43:04.611Z,7.97
2018-04-10T09:45:32.915Z,11.23
2018-04-10T09:48:00.500Z,11.60
2018-04-10T09:50:28.039Z,10.43
2018-04-10T09:52:55.616Z,13.00
2018-04-10T09:55:23.152Z,10.57
2018-04-10T09:57:51.441Z,14.83
2018-04-10T10:00:24.624Z,12.83
2018-04-10T10:02:52.157Z,12.73
2018-04-10T10:05:19.695Z,12.37
2018-04-10T10:07:48.158Z,15.00
2018-04-10T10:10:15.702Z,23.03
2018-04-10T10:12:43.277Z,14.77
2018-04-10T10:15:10.817Z,16.40
2018-04-10T10:17:38.390Z,16.73
2018-04-10T10:20:05.951Z,13.97
2018-04-10T10:22:33.516Z,14.13
2018-04-10T10:25:01.063Z,17.27
2018-04-10T10:27:28.587Z,17.83
2018-04-10T10:29:56.103Z,16.07
2018-04-10T10:32:23.645Z,17.13
2018-04-10T10:34:51.169Z,13.50
2018-04-10T10:37:19.480Z,16.97
2018-04-10T10:39:47.054Z,14.50
2018-04-10T10:42:14.592Z,13.93
2018-04-10T10:44:42.115Z,16.10
2018-04-10T10:47:10.439Z,14.37
2018-04-10T10:49:37.956Z,16.90
2018-04-10T10:52:05.502Z,15.47
2018-04-10T10:54:33.034Z,17.10
2018-04-10T10:57:00.584Z,17.50
2018-04-10T10:59:28.104Z,14.90
2018-04-10T11:01:55.642Z,15.70
2018-04-10T11:04:23.177Z,16.33
2018-04-10T11:06:50.733Z,17.73
2018-04-10T11:09:18.260Z,14.83
2018-04-10T11:11:46.559Z,15.33
2018-04-10T11:14:14.075Z,19.70
2018-04-10T11:16:41.683Z,16.70
2018-04-10T11:19:09.254Z,18.40
2018-04-10T11:21:36.805Z,15.70
2018-04-10T11:24:04.373Z,20.03
2018-04-10T11:26:31.899Z,18.03
2018-04-10T11:29:00.316Z,18.60
2018-04-10T11:31:27.835Z,14.20
2018-04-10T11:33:56.159Z,14.17
2018-04-10T11:36:23.708Z,14.73
2018-04-10T11:38:51.276Z,17.23
2018-04-10T11:41:18.794Z,14.33
2018-04-10T11:43:47.100Z,13.53
2018-04-10T11:46:14.627Z,14.70
2018-04-10T11:48:42.241Z,19.50
2018-04-10T11:51:09.801Z,15.43
2018-04-10T11:53:37.346Z,18.63
2018-04-10T11:56:04.863Z,22.27
2018-04-10T11:58:33.165Z,14.67
2018-04-10T12:01:01.449Z,15.10
2018-04-10T12:03:28.988Z,14.83
2018-04-10T12:05:57.273Z,16.93
2018-04-10T12:08:25.576Z,13.27
2018-04-10T12:10:53.107Z,13.70
2018-04-10T12:13:21.412Z,11.10
2018-04-10T12:15:48.983Z,17.13
2018-04-10T12:18:16.528Z,12.90
2018-04-10T12:20:44.052Z,12.90
2018-04-10T12:23:11.592Z,10.50
2018-04-10T12:25:39.110Z,19.13
2018-04-10T12:28:06.648Z,12.23
2018-04-10T12:30:34.976Z,11.93
2018-04-10T12:33:02.502Z,16.03
2018-04-10T12:35:30.041Z,17.10
2018-04-10T12:37:58.327Z,12.93
2018-04-10T12:40:26.634Z,16.53
2018-04-10T12:42:54.161Z,15.57
2018-04-10T12:45:22.469Z,10.40
2018-04-10T12:47:49.990Z,14.63
2018-04-10T12:50:17.531Z,14.90
2018-04-10T12:52:45.206Z,11.17
2018-04-10T12:55:12.719Z,15.70
2018-04-10T12:57:40.282Z,16.23
2018-04-10T13:00:07.844Z,16.50
2018-04-10T13:02:35.361Z,13.77
2018-04-10T13:05:03.679Z,15.70
2018-04-10T13:07:31.238Z,16.83
2018-04-10T13:09:58.799Z,18.07
2018-04-10T13:12:26.318Z,16.70
2018-04-10T13:14:54.742Z,12.90
2018-04-10T13:17:22.254Z,12.10
2018-04-10T13:19:49.778Z,17.30
2018-04-10T13:22:17.357Z,16.77
2018-04-10T13:24:44.861Z,17.17
2018-04-10T13:27:12.421Z,17.23
2018-04-10T13:29:40.704Z,22.03
2018-04-10T13:32:08.248Z,15.60
2018-04-10T13:34:36.527Z,17.90
2018-04-10T13:37:04.836Z,14.30
2018-04-10T13:39:32.355Z,14.80
2018-04-10T13:42:00.658Z,13.87
2018-04-10T13:44:28.184Z,15.17
2018-04-10T13:46:56.487Z,15.40
2018-04-10T13:49:24.767Z,20.83
2018-04-10T13:51:52.350Z,18.33
2018-04-10T13:54:19.919Z,18.20
2018-04-10T13:56:47.473Z,19.83
2018-04-10T13:59:15.035Z,11.83
2018-04-10T14:01:42.569Z,13.77
2018-04-10T14:04:10.865Z,15.40
2018-04-10T14:06:38.410Z,16.40
2018-04-10T14:09:05.933Z,14.30
2018-04-10T14:11:33.484Z,15.30
2018-04-10T14:14:01.014Z,20.07
2018-04-10T14:16:28.536Z,14.30
2018-04-10T14:18:56.844Z,21.20
2018-04-10T14:21:24.413Z,18.30
2018-04-10T14:23:51.969Z,16.37
2018-04-10T14:26:19.530Z,16.63
2018-04-10T14:28:47.064Z,17.10
2018-04-10T14:31:15.347Z,17.70
2018-04-10T14:33:43.646Z,15.30
2018-04-10T14:36:11.165Z,14.63
2018-04-10T14:38:39.490Z,17.83
2018-04-10T14:41:07.020Z,18.63
2018-04-10T14:43:35.325Z,17.90
2018-04-10T14:46:02.891Z,14.57
2018-04-10T14:48:30.432Z,17.10
2018-04-10T14:50:57.952Z,18.77
2018-04-10T14:53:25.489Z,24.80
2018-04-10T14:55:53.014Z,19.30
2018-04-10T14:58:20.559Z,17.73
2018-04-10T15:00:48.844Z,16.20
2018-04-10T15:03:16.385Z,16.73
2018-04-10T15:05:44.736Z,16.20
2018-04-10T15:08:12.282Z,17.77
2018-04-10T15:10:39.816Z,20.00
2018-04-10T15:13:07.343Z,18.10
2018-04-10T15:15:35.647Z,19.00
2018-04-10T15:18:03.163Z,15.67
2018-04-10T15:20:30.703Z,15.93
2018-04-10T15:22:58.223Z,15.10
2018-04-10T15:25:25.773Z,17.67
2018-04-10T15:27:54.066Z,9.83
2018-04-10T15:30:21.600Z,10.23
2018-04-10T15:32:49.886Z,12.23
2018-04-10T15:35:18.192Z,14.03
2018-04-10T15:37:45.708Z,11.07
2018-04-10T15:40:14.012Z,14.80
2018-04-10T15:42:41.539Z,17.10
2018-04-10T15:45:09.865Z,13.57
2018-04-10T15:47:37.383Z,12.13
2018-04-10T15:50:04.928Z,15.40
2018-04-10T15:52:32.450Z,15.33
2018-04-10T15:54:59.992Z,16.90
2018-04-10T15:57:27.517Z,14.60
2018-04-10T15:59:56.555Z,9.80
2018-04-10T16:02:24.070Z,13.57
2018-04-10T16:04:51.687Z,12.70
2018-04-10T16:07:19.220Z,9.90
2018-04-10T16:09:47.510Z,9.30
2018-04-10T16:12:15.043Z,7.27
2018-04-10T16:14:43.323Z,11.90
2018-04-10T16:17:11.635Z,7.63
2018-04-10T16:19:39.152Z,6.10
2018-04-10T16:22:06.697Z,8.50
2018-04-10T16:24:34.218Z,6.10
2018-04-10T16:27:01.753Z,6.57
2018-04-10T16:29:30.033Z,8.20
2018-04-10T16:31:58.329Z,8.13
2018-04-10T16:34:25.847Z,7.97
2018-04-10T16:36:53.376Z,6.80
2018-04-10T16:39:20.895Z,6.30
2018-04-10T16:41:48.467Z,9.63
2018-04-10T16:44:16.035Z,7.77
2018-04-10T16:46:43.596Z,6.40
2018-04-10T16:49:11.113Z,12.50
2018-04-10T16:51:39.404Z,10.83
2018-04-10T16:54:07.698Z,7.53
2018-04-10T16:56:35.280Z,9.27
2018-04-10T16:59:02.815Z,7.80
2018-04-10T17:01:30.388Z,8.27
2018-04-10T17:03:57.936Z,10.07
2018-04-10T17:06:25.446Z,8.90
2018-04-10T17:08:52.979Z,9.37
2018-04-10T17:11:20.492Z,11.63
2018-04-10T17:13:48.788Z,9.90
2018-04-10T17:16:16.324Z,8.17
2018-04-10T17:18:43.923Z,7.83
2018-04-10T17:21:11.436Z,11.13
2018-04-10T17:23:38.972Z,11.63
2018-04-10T17:26:06.488Z,9.50
2018-04-10T17:28:34.016Z,8.17
2018-04-10T17:31:01.564Z,11.47
2018-04-10T17:33:29.106Z,9.93
2018-04-10T17:35:56.643Z,8.00
2018-04-10T17:38:24.161Z,7.50
2018-04-10T17:40:51.775Z,8.00
2018-04-10T17:43:19.282Z,7.47
2018-04-10T17:45:46.812Z,10.77
2018-04-10T17:48:14.325Z,9.33
2018-04-10T17:50:42.656Z,7.57
2018-04-10T17:53:10.156Z,7.10
2018-04-10T17:55:38.458Z,8.50
2018-04-10T17:58:05.971Z,9.57
2018-04-10T18:00:33.495Z,7.83
2018-04-10T18:03:01.003Z,6.70
2018-04-10T18:05:28.540Z,8.07
2018-04-10T18:07:56.055Z,8.47
2018-04-10T18:10:23.593Z,8.57
2018-04-10T18:12:51.908Z,8.57
2018-04-10T18:15:19.440Z,8.67
2018-04-10T18:17:47.720Z,9.70
2018-04-10T18:20:16.023Z,9.50
2018-04-10T18:22:43.539Z,9.50
2018-04-10T18:25:11.084Z,11.80
2018-04-10T18:27:38.617Z,7.90
2018-04-10T18:30:06.150Z,8.80
2018-04-10T18:32:33.723Z,10.53
2018-04-10T18:35:01.283Z,8.50
2018-04-10T18:37:28.844Z,7.43
2018-04-10T18:39:56.355Z,8.40
2018-04-10T18:42:23.878Z,8.40
2018-04-10T18:44:51.393Z,7.37
2018-04-10T18:47:19.702Z,9.17
2018-04-10T18:49:47.216Z,7.67
2018-04-10T18:52:15.516Z,8.20
2018-04-10T18:54:43.787Z,9.27
2018-04-10T18:57:12.083Z,9.20
2018-04-10T18:59:39.596Z,7.20
2018-04-10T19:02:07.136Z,7.20
2018-04-10T19:04:34.675Z,8.93
2018-04-10T19:07:02.207Z,11.33
2018-04-10T19:09:30.488Z,10.17
2018-04-10T19:11:58.024Z,10.67
2018-04-10T19:14:25.544Z,18.50
2018-04-10T19:16:53.092Z,15.20
2018-04-10T19:19:20.651Z,10.67
2018-04-10T19:21:48.156Z,8.43
2018-04-10T19:24:15.692Z,9.10
2018-04-10T19:26:43.204Z,8.67
2018-04-10T19:29:11.504Z,9.37
2018-04-10T19:31:39.022Z,9.83
2018-04-10T19:34:07.324Z,9.83
2018-04-10T19:36:34.899Z,9.33
2018-04-10T19:39:02.431Z,9.43
2018-04-10T19:41:30.739Z,10.17
2018-04-10T19:43:58.268Z,8.27
2018-04-10T19:46:26.554Z,8.30
2018-04-10T19:48:54.855Z,8.80
2018-04-10T19:51:22.362Z,6.80
2018-04-10T19:53:49.892Z,6.00
2018-04-10T19:56:17.400Z,6.80
2018-04-10T19:58:45.699Z,7.17
2018-04-10T20:01:13.211Z,15.40
2018-04-10T20:03:40.738Z,5.90
2018-04-10T20:06:08.292Z,4.90
2018-04-10T20:08:35.831Z,9.77
2018-04-10T20:11:03.343Z,4.60
2018-04-10T20:13:30.923Z,5.83
2018-04-10T20:15:58.435Z,8.27
2018-04-10T20:18:25.970Z,5.37
2018-04-10T20:20:53.482Z,5.97
2018-04-10T20:23:21.012Z,5.20
2018-04-10T20:25:48.544Z,5.07
2018-04-10T20:28:16.821Z,5.80
2018-04-10T20:30:45.119Z,3.97
2018-04-10T20:33:12.628Z,4.17
2018-04-10T20:35:41.670Z,5.80
2018-04-10T20:38:09.246Z,5.00
2018-04-10T20:40:36.775Z,3.47
2018-04-10T20:43:05.051Z,3.93
2018-04-10T20:45:33.364Z,3.83
2018-04-10T20:48:00.879Z,3.73
2018-04-10T20:50:29.183Z,3.07
2018-04-10T20:52:56.751Z,2.53
2018-04-10T20:55:24.344Z,2.50
2018-04-10T20:57:51.856Z,2.53
2018-04-10T21:00:19.390Z,3.00
2018-04-10T21:02:46.907Z,3.97
2018-04-10T21:05:14.455Z,3.03
2018-04-10T21:07:42.019Z,6.07
2018-04-10T21:10:09.552Z,3.47
2018-04-10T21:12:37.136Z,2.87
2018-04-10T21:15:04.671Z,4.00
2018-04-10T21:17:32.955Z,3.87
2018-04-10T21:20:01.256Z,3.70
2018-04-10T21:22:28.770Z,2.13
2018-04-10T21:24:57.075Z,2.63
2018-04-10T21:27:24.592Z,3.13
2018-04-10T21:29:52.912Z,4.93
2018-04-10T21:32:20.435Z,2.53
2018-04-10T21:34:47.971Z,2.67
2018-04-10T21:37:15.484Z,8.07
2018-04-10T21:39:43.778Z,2.90
2018-04-10T21:42:11.300Z,2.17
2018-04-10T21:44:38.908Z,2.00
2018-04-10T21:47:06.445Z,4.93
2018-04-10T21:49:34.724Z,1.90
2018-04-10T21:52:03.026Z,3.97
2018-04-10T21:54:30.584Z,5.50
2018-04-10T21:56:58.119Z,2.50
2018-04-10T21:59:26.399Z,1.70
2018-04-10T22:01:53.940Z,3.43
2018-04-10T22:04:21.446Z,3.20
2018-04-10T22:06:48.979Z,1.97
2018-04-10T22:09:17.261Z,3.50
2018-04-10T22:11:44.786Z,1.30
2018-04-10T22:14:12.302Z,2.20
2018-04-10T22:16:39.828Z,2.23
2018-04-10T22:19:08.106Z,1.77
2018-04-10T22:21:36.421Z,1.60
2018-04-10T22:24:03.933Z,3.33
2018-04-10T22:26:32.258Z,3.47
2018-04-10T22:28:59.811Z,2.57
2018-04-10T22:31:27.323Z,2.50
2018-04-10T22:33:54.832Z,2.40
2018-04-10T22:36:22.345Z,5.50
2018-04-10T22:38:49.880Z,1.97
2018-04-10T22:41:18.168Z,1.80
2018-04-10T22:43:45.753Z,2.47
2018-04-10T22:46:13.264Z,3.40
2018-04-10T22:48:41.570Z,2.53
2018-04-10T22:51:09.871Z,4.20
2018-04-10T22:53:37.403Z,5.90
2018-04-10T22:56:05.706Z,5.20
2018-04-10T22:58:33.249Z,6.87
2018-04-10T23:01:00.760Z,3.50
2018-04-10T23:03:28.434Z,3.40
2018-04-10T23:05:55.940Z,3.03
2018-04-10T23:08:23.530Z,2.83
2018-04-10T23:10:51.049Z,5.73
2018-04-10T23:13:18.577Z,2.33
2018-04-10T23:15:46.111Z,3.40
2018-04-10T23:18:13.690Z,2.60
2018-04-10T23:20:41.223Z,4.97
2018-04-10T23:23:09.533Z,4.60
2018-04-10T23:25:37.065Z,4.30
2018-04-10T23:28:05.348Z,3.17
2018-04-10T23:30:32.878Z,2.77
2018-04-10T23:33:00.399Z,3.10
2018-04-10T23:35:27.953Z,3.63
2018-04-10T23:37:55.470Z,2.17
2018-04-10T23:40:23.005Z,1.97
2018-04-10T23:42:50.524Z,1.70
2018-04-10T23:45:18.071Z,2.40
2018-04-10T23:47:46.351Z,2.10
2018-04-10T23:50:14.628Z,2.90
2018-04-10T23:52:42.935Z,3.63
2018-04-10T23:55:10.493Z,5.07
2018-04-10T23:57:38.024Z,3.20
